Time;durP1;ratioP1;P1;durP2;ratioP2;P2;SDS_P1;SDS_P2;PMS_P1;PMS_P2;Temp;Humidity;BMP_temperature;BMP_pressure;BME280_temperature;BME280_humidity;BME280_pressure;Samples;Min_cycle;Max_cycle;Signal;HPM_P1;HPM_P2
2023/10/27 00:00:18;;;;;;;22.15;11.15;;;8.80;99.90;;;;;;4355523;28;658445;-68
2023/10/27 00:03:05;;;;;;;23.37;12.30;;;8.70;99.90;;;;;;4377613;28;658757;-68
2023/10/27 00:05:54;;;;;;;24.07;11.47;;;8.70;99.90;;;;;;4357385;28;658555;-68
2023/10/27 00:08:41;;;;;;;21.27;11.53;;;8.70;99.90;;;;;;4376076;28;658516;-68
2023/10/27 00:11:28;;;;;;;21.73;11.97;;;8.70;99.90;;;;;;4351118;28;658771;-68
2023/10/27 00:14:15;;;;;;;21.83;11.17;;;8.70;99.90;;;;;;4376979;28;660078;-68
2023/10/27 00:17:03;;;;;;;20.57;10.23;;;8.70;99.90;;;;;;4353126;28;659647;-68
2023/10/27 00:19:50;;;;;;;25.40;10.57;;;8.60;99.90;;;;;;4373291;28;658968;-68
2023/10/27 00:22:39;;;;;;;21.30;11.47;;;8.60;99.90;;;;;;4350983;28;658431;-68
2023/10/27 00:25:26;;;;;;;20.67;10.57;;;8.60;99.90;;;;;;4363797;28;659909;-68
2023/10/27 00:28:13;;;;;;;22.20;10.83;;;8.60;99.90;;;;;;4349691;28;659389;-68
2023/10/27 00:31:00;;;;;;;17.60;10.60;;;8.60;99.90;;;;;;4374457;28;659250;-68
2023/10/27 00:33:48;;;;;;;22.90;10.23;;;8.60;99.90;;;;;;4353647;28;658514;-68
2023/10/27 00:36:35;;;;;;;23.67;10.83;;;8.60;99.90;;;;;;4369680;28;659944;-68
2023/10/27 00:39:24;;;;;;;22.63;10.70;;;8.70;99.90;;;;;;4367541;28;658446;-68
2023/10/27 00:42:11;;;;;;;18.27;10.23;;;8.70;99.90;;;;;;4375008;28;658174;-68
2023/10/27 00:44:58;;;;;;;19.90;9.80;;;8.80;99.90;;;;;;4348430;28;659105;-68
2023/10/27 00:47:45;;;;;;;19.90;9.13;;;8.80;99.90;;;;;;4372349;28;658301;-68
2023/10/27 00:50:33;;;;;;;23.70;10.67;;;8.80;99.90;;;;;;4365580;28;658576;-68
2023/10/27 00:53:20;;;;;;;21.27;9.00;;;8.80;99.90;;;;;;4374839;28;660134;-69
2023/10/27 00:56:09;;;;;;;18.03;8.87;;;8.80;99.90;;;;;;4355617;28;657776;-68
2023/10/27 00:58:57;;;;;;;14.70;8.43;;;8.70;99.90;;;;;;4366352;28;657957;-68
2023/10/27 01:01:44;;;;;;;15.27;8.40;;;8.60;99.90;;;;;;4356959;28;659116;-68
2023/10/27 01:04:31;;;;;;;14.93;8.30;;;8.50;99.90;;;;;;4374162;28;658012;-68
2023/10/27 01:07:19;;;;;;;18.27;8.15;;;8.40;99.90;;;;;;4352627;28;657797;-68
2023/10/27 01:10:07;;;;;;;14.57;8.70;;;8.40;99.90;;;;;;4377069;28;658626;-68
2023/10/27 01:12:55;;;;;;;18.03;9.23;;;8.30;99.90;;;;;;4347550;28;658599;-68
2023/10/27 01:15:43;;;;;;;19.97;9.47;;;8.30;99.90;;;;;;4358189;28;658135;-69
2023/10/27 01:18:30;;;;;;;16.83;9.50;;;8.30;99.90;;;;;;4377090;28;657954;-68
2023/10/27 01:21:17;;;;;;;19.23;11.37;;;8.20;99.90;;;;;;4365899;28;657964;-69
2023/10/27 01:24:07;;;;;;;18.10;11.13;;;8.10;99.90;;;;;;4370713;28;659468;-68
2023/10/27 01:26:55;;;;;;;16.17;10.27;;;8.10;99.90;;;;;;4346773;28;659330;-68
2023/10/27 01:29:43;;;;;;;18.93;10.57;;;8.00;99.90;;;;;;4355632;28;658608;-69
2023/10/27 01:32:30;;;;;;;25.23;10.70;;;7.90;99.90;;;;;;4374125;28;659572;-68
2023/10/27 01:35:17;;;;;;;23.67;10.63;;;7.90;99.90;;;;;;4365804;28;658406;-68
2023/10/27 01:38:05;;;;;;;18.90;11.37;;;7.90;99.90;;;;;;4371273;28;659335;-68
2023/10/27 01:40:54;;;;;;;20.10;10.70;;;7.80;99.90;;;;;;4363064;28;658682;-68
2023/10/27 01:43:41;;;;;;;19.03;10.57;;;7.70;99.90;;;;;;4370023;28;658901;-68
2023/10/27 01:46:28;;;;;;;16.80;10.73;;;7.70;99.90;;;;;;4349974;28;658832;-68
2023/10/27 01:49:15;;;;;;;19.83;10.00;;;7.70;99.90;;;;;;4371243;28;658852;-68
2023/10/27 01:52:03;;;;;;;18.43;10.30;;;7.70;99.90;;;;;;4349983;28;659123;-68
2023/10/27 01:54:50;;;;;;;19.87;10.00;;;7.60;99.90;;;;;;4368411;28;660326;-68
2023/10/27 01:57:39;;;;;;;78.37;11.53;;;7.50;99.90;;;;;;4354530;28;659245;-68
2023/10/27 02:00:26;;;;;;;24.47;10.10;;;7.60;99.90;;;;;;4367722;28;658374;-68
2023/10/27 02:03:13;;;;;;;20.37;9.80;;;7.60;99.90;;;;;;4353588;28;658588;-69
2023/10/27 02:06:01;;;;;;;19.43;10.63;;;7.40;99.90;;;;;;4372249;28;658949;-68
2023/10/27 02:08:48;;;;;;;16.50;9.90;;;7.30;99.90;;;;;;4348455;28;659240;-68
2023/10/27 02:11:35;;;;;;;25.03;9.93;;;7.20;99.90;;;;;;4370927;28;658775;-68
2023/10/27 02:14:24;;;;;;;557.00;23.83;;;7.00;99.90;;;;;;4356271;28;657442;-69
2023/10/27 02:17:11;;;;;;;72.50;12.07;;;7.00;99.90;;;;;;4364775;28;660136;-68
2023/10/27 02:19:58;;;;;;;20.23;10.20;;;7.00;99.90;;;;;;4348523;28;659451;-68
2023/10/27 02:22:46;;;;;;;116.63;13.10;;;7.00;99.90;;;;;;4368532;28;659479;-69
2023/10/27 02:25:33;;;;;;;20.73;11.80;;;7.00;99.90;;;;;;4349349;28;661917;-69
2023/10/27 02:28:20;;;;;;;24.30;13.77;;;6.90;99.90;;;;;;4377396;28;660536;-68
2023/10/27 02:31:09;;;;;;;20.52;13.07;;;6.90;99.90;;;;;;4358146;28;660033;-69
2023/10/27 02:33:56;;;;;;;26.27;12.77;;;6.90;99.90;;;;;;4365035;28;658463;-68
2023/10/27 02:36:43;;;;;;;69.77;12.77;;;6.80;99.90;;;;;;4350693;28;658729;-69
2023/10/27 02:39:30;;;;;;;17.80;10.83;;;6.80;99.90;;;;;;4369677;28;659493;-68
2023/10/27 02:42:18;;;;;;;22.27;10.60;;;6.70;99.90;;;;;;4347452;28;658691;-68
2023/10/27 02:45:06;;;;;;;16.63;10.90;;;6.80;99.90;;;;;;4368636;28;659992;-68
2023/10/27 02:47:55;;;;;;;23.03;10.47;;;6.80;99.90;;;;;;4348827;28;659201;-68
2023/10/27 02:50:42;;;;;;;22.30;11.27;;;6.70;99.90;;;;;;4367690;28;658585;-69
2023/10/27 02:53:30;;;;;;;21.63;12.90;;;6.70;99.90;;;;;;4371055;28;659793;-68
2023/10/27 02:56:17;;;;;;;19.27;11.83;;;6.70;99.90;;;;;;4367150;28;658481;-69
2023/10/27 02:59:05;;;;;;;21.20;11.20;;;6.70;99.90;;;;;;4349642;28;659801;-68
2023/10/27 03:01:54;;;;;;;20.40;10.83;;;6.80;99.90;;;;;;4353615;28;658983;-68
2023/10/27 03:04:42;;;;;;;26.63;11.40;;;6.80;99.90;;;;;;4369133;28;659388;-69
2023/10/27 03:07:30;;;;;;;21.23;11.30;;;6.80;99.90;;;;;;4350615;28;659656;-68
2023/10/27 03:10:17;;;;;;;22.97;11.50;;;6.70;99.90;;;;;;4371258;28;658335;-68
2023/10/27 03:13:08;;;;;;;24.07;13.73;;;6.70;99.90;;;;;;4375250;28;659457;-69
2023/10/27 03:15:55;;;;;;;22.03;12.47;;;6.70;99.90;;;;;;4342498;28;659137;-69
2023/10/27 03:18:43;;;;;;;23.92;12.27;;;6.70;99.90;;;;;;4357106;28;659072;-68
2023/10/27 03:21:31;;;;;;;23.67;11.47;;;6.80;99.90;;;;;;4368702;28;660066;-69
2023/10/27 03:24:18;;;;;;;20.20;10.73;;;6.80;99.90;;;;;;4349843;28;659432;-69
2023/10/27 03:27:06;;;;;;;20.73;11.73;;;6.70;99.90;;;;;;4376317;28;659608;-69
2023/10/27 03:29:53;;;;;;;23.87;11.93;;;6.70;99.90;;;;;;4357017;28;660005;-69
2023/10/27 03:32:40;;;;;;;18.07;11.10;;;6.70;99.90;;;;;;4372910;28;658543;-68
2023/10/27 03:35:28;;;;;;;26.27;11.55;;;6.70;99.90;;;;;;4351803;28;659385;-69
2023/10/27 03:38:17;;;;;;;18.60;10.27;;;6.80;99.90;;;;;;4379348;28;658874;-69
2023/10/27 03:41:04;;;;;;;24.23;10.30;;;6.80;99.90;;;;;;4350375;28;660085;-69
2023/10/27 03:43:52;;;;;;;18.87;10.13;;;6.80;99.90;;;;;;4373245;28;659430;-69
2023/10/27 03:46:39;;;;;;;20.40;11.20;;;6.80;99.90;;;;;;4356524;28;659289;-69
2023/10/27 03:49:27;;;;;;;20.60;11.13;;;6.80;99.90;;;;;;4378927;28;658535;-69
2023/10/27 03:52:15;;;;;;;18.53;10.90;;;6.90;99.90;;;;;;4347853;28;659524;-69
2023/10/27 03:55:05;;;;;;;21.30;10.93;;;6.90;99.90;;;;;;4349134;28;658683;-69
2023/10/27 03:57:55;;;;;;;20.80;11.30;;;6.90;99.90;;;;;;4352922;28;658686;-68
2023/10/27 04:00:42;;;;;;;18.50;10.93;;;7.00;99.90;;;;;;4373559;28;658577;-68
2023/10/27 04:03:31;;;;;;;20.67;11.60;;;7.00;99.90;;;;;;4353239;28;659336;-69
2023/10/27 04:06:18;;;;;;;17.47;10.73;;;7.00;99.90;;;;;;4352049;28;658792;-69
2023/10/27 04:09:06;;;;;;;17.00;10.87;;;7.10;99.90;;;;;;4377086;28;659367;-68
2023/10/27 04:11:54;;;;;;;20.13;10.90;;;7.00;99.90;;;;;;4354608;28;658428;-68
2023/10/27 04:14:41;;;;;;;17.67;11.03;;;7.10;99.90;;;;;;4373400;28;659222;-70
2023/10/27 04:17:29;;;;;;;24.53;14.53;;;7.10;99.90;;;;;;4354210;28;659379;-69
2023/10/27 04:20:16;;;;;;;27.33;10.50;;;7.30;99.90;;;;;;4374026;28;659860;-68
2023/10/27 04:23:04;;;;;;;21.40;10.87;;;7.40;99.90;;;;;;4351585;28;659505;-69
2023/10/27 04:25:52;;;;;;;27.20;14.20;;;7.40;99.90;;;;;;4367137;28;658838;-69
2023/10/27 04:28:40;;;;;;;24.00;14.23;;;7.30;99.90;;;;;;4345652;28;659302;-69
2023/10/27 04:31:27;;;;;;;20.97;12.67;;;7.20;99.90;;;;;;4350811;28;658999;-69
2023/10/27 04:34:15;;;;;;;20.33;11.93;;;7.30;99.90;;;;;;4373266;28;659102;-69
2023/10/27 04:37:03;;;;;;;17.33;11.37;;;7.40;99.90;;;;;;4350125;28;659162;-69
2023/10/27 04:39:50;;;;;;;20.63;12.53;;;7.50;99.90;;;;;;4368020;28;659931;-69
2023/10/27 04:42:37;;;;;;;19.70;12.32;;;7.60;99.90;;;;;;4350607;28;658931;-69
2023/10/27 04:45:26;;;;;;;21.47;13.87;;;7.70;99.90;;;;;;4368237;28;659665;-69
2023/10/27 04:48:13;;;;;;;20.07;12.77;;;7.80;99.90;;;;;;4351340;28;658932;-70
2023/10/27 04:51:03;;;;;;;22.53;13.73;;;7.90;99.90;;;;;;4368453;28;661614;-69
2023/10/27 04:53:50;;;;;;;24.93;12.87;;;7.90;99.90;;;;;;4346274;28;659656;-69
2023/10/27 04:56:37;;;;;;;23.35;13.73;;;8.00;99.90;;;;;;4355012;28;658836;-69
2023/10/27 04:59:25;;;;;;;20.23;12.17;;;8.20;99.90;;;;;;4369496;28;658918;-69
2023/10/27 05:02:13;;;;;;;26.53;13.50;;;8.30;99.90;;;;;;4372268;28;658785;-69
2023/10/27 05:05:00;;;;;;;22.73;12.83;;;8.30;99.90;;;;;;4349390;28;658865;-69
2023/10/27 05:07:48;;;;;;;25.97;13.70;;;8.30;99.90;;;;;;4347170;28;658944;-70
2023/10/27 05:10:35;;;;;;;24.57;13.43;;;8.40;99.90;;;;;;4365993;28;659941;-69
2023/10/27 05:13:23;;;;;;;23.87;12.93;;;8.40;99.90;;;;;;4348374;28;659194;-68
2023/10/27 05:16:10;;;;;;;26.17;12.77;;;8.50;99.90;;;;;;4371809;28;659647;-69
2023/10/27 05:18:59;;;;;;;18.90;11.70;;;8.60;99.90;;;;;;4364915;28;658552;-69
2023/10/27 05:21:46;;;;;;;23.30;12.13;;;8.60;99.90;;;;;;4375389;28;658290;-69
2023/10/27 05:24:33;;;;;;;476.03;19.70;;;8.60;99.90;;;;;;4352691;28;658348;-69
2023/10/27 05:27:20;;;;;;;33.67;12.33;;;8.70;99.90;;;;;;4369832;28;660354;-69
2023/10/27 05:30:09;;;;;;;23.00;11.10;;;8.60;99.90;;;;;;4351797;28;658156;-69
2023/10/27 05:32:56;;;;;;;18.33;10.53;;;8.60;99.90;;;;;;4367820;28;659959;-69
2023/10/27 05:35:44;;;;;;;302.20;16.57;;;8.60;99.90;;;;;;4348023;28;658640;-69
2023/10/27 05:38:32;;;;;;;20.53;10.47;;;8.70;99.90;;;;;;4370609;28;660186;-69
2023/10/27 05:41:19;;;;;;;18.17;10.67;;;8.60;99.90;;;;;;4347248;28;658658;-69
2023/10/27 05:44:07;;;;;;;26.07;10.40;;;8.60;99.90;;;;;;4369198;28;659937;-69
2023/10/27 05:46:54;;;;;;;357.20;14.70;;;8.70;99.90;;;;;;4351956;28;659085;-69
2023/10/27 05:49:41;;;;;;;274.73;15.10;;;8.60;99.90;;;;;;4372543;28;660543;-70
2023/10/27 05:52:30;;;;;;;36.53;12.33;;;8.60;99.90;;;;;;4348627;28;659327;-70
2023/10/27 05:55:17;;;;;;;23.77;13.00;;;8.60;99.90;;;;;;4366118;28;658454;-70
2023/10/27 05:58:05;;;;;;;30.17;12.90;;;8.60;99.90;;;;;;4375416;28;658692;-70
2023/10/27 06:00:53;;;;;;;28.40;14.27;;;8.60;99.90;;;;;;4351010;28;659700;-70
2023/10/27 06:03:40;;;;;;;24.80;14.03;;;8.60;99.90;;;;;;4372626;28;659971;-70
2023/10/27 06:06:28;;;;;;;25.07;13.50;;;8.70;99.90;;;;;;4356841;28;659074;-70
2023/10/27 06:09:16;;;;;;;25.27;13.77;;;8.80;99.90;;;;;;4369068;28;659874;-70
2023/10/27 06:12:05;;;;;;;24.43;13.40;;;8.90;99.90;;;;;;4354033;28;659011;-70
2023/10/27 06:14:52;;;;;;;22.67;13.20;;;9.00;99.90;;;;;;4367273;28;658405;-70
2023/10/27 06:17:40;;;;;;;28.63;14.80;;;9.00;99.90;;;;;;4370759;28;659601;-70
2023/10/27 06:20:27;;;;;;;28.10;14.00;;;9.10;99.90;;;;;;4362120;28;659722;-70
2023/10/27 06:23:15;;;;;;;25.17;13.03;;;9.20;99.90;;;;;;4370434;28;659271;-70
2023/10/27 06:26:04;;;;;;;25.10;13.60;;;9.30;99.90;;;;;;4364580;28;659276;-70
2023/10/27 06:28:52;;;;;;;23.30;13.07;;;9.30;99.90;;;;;;4369770;28;658451;-71
2023/10/27 06:31:39;;;;;;;29.73;13.30;;;9.40;99.90;;;;;;4351207;28;659972;-70
2023/10/27 06:34:27;;;;;;;26.27;14.27;;;9.50;99.90;;;;;;4368361;28;658922;-70
2023/10/27 06:37:14;;;;;;;26.83;13.53;;;9.50;99.90;;;;;;4350962;28;658845;-70
2023/10/27 06:40:01;;;;;;;21.50;11.57;;;9.60;99.90;;;;;;4356028;28;658652;-70
2023/10/27 06:42:50;;;;;;;22.13;12.13;;;9.70;99.90;;;;;;4336765;28;658650;-70
2023/10/27 06:45:37;;;;;;;27.60;14.40;;;9.90;99.90;;;;;;4353607;28;658829;-70
2023/10/27 06:48:25;;;;;;;27.43;14.50;;;9.80;99.90;;;;;;4359271;28;659044;-70
2023/10/27 06:51:12;;;;;;;24.60;14.80;;;9.90;99.90;;;;;;4359480;28;658599;-70
2023/10/27 06:53:59;;;;;;;30.20;17.27;;;9.90;99.90;;;;;;4340318;28;659031;-70
2023/10/27 06:56:46;;;;;;;31.88;17.55;;;10.00;99.90;;;;;;4360450;28;658306;-71
2023/10/27 06:59:35;;;;;;;40.77;22.57;;;10.10;99.90;;;;;;4335730;28;659741;-70
2023/10/27 07:02:22;;;;;;;55.93;30.80;;;10.20;99.90;;;;;;4349438;28;659746;-70
2023/10/27 07:05:13;;;;;;;56.93;31.73;;;10.20;99.90;;;;;;4362886;28;660255;-70
2023/10/27 07:08:00;;;;;;;51.70;29.33;;;10.30;99.90;;;;;;4334737;28;660037;-70
2023/10/27 07:10:53;;;;;;;38.80;23.33;;;10.30;99.90;;;;;;4338595;28;659627;-70
2023/10/27 07:13:40;;;;;;;37.90;22.03;;;10.40;99.90;;;;;;4338753;28;660326;-70
2023/10/27 07:16:29;;;;;;;32.13;20.80;;;10.50;99.90;;;;;;4350086;28;660048;-70
2023/10/27 07:19:16;;;;;;;32.63;20.37;;;10.60;99.90;;;;;;4355471;28;659179;-70
2023/10/27 07:22:04;;;;;;;26.90;16.90;;;10.70;99.90;;;;;;4336682;28;659955;-70
2023/10/27 07:24:51;;;;;;;26.00;14.77;;;10.70;99.90;;;;;;4356340;28;659831;-70
2023/10/27 07:27:38;;;;;;;23.90;15.70;;;10.80;99.90;;;;;;4338230;28;660381;-70
2023/10/27 07:30:25;;;;;;;26.57;14.53;;;10.90;99.90;;;;;;4355831;28;660554;-70
2023/10/27 07:33:14;;;;;;;24.83;13.93;;;10.90;99.90;;;;;;4341046;28;660943;-70
2023/10/27 07:36:02;;;;;;;22.60;12.37;;;10.90;99.90;;;;;;4361558;28;659183;-70
2023/10/27 07:38:50;;;;;;;20.50;11.57;;;11.00;99.90;;;;;;4342015;28;660961;-70
2023/10/27 07:41:37;;;;;;;21.73;14.23;;;11.00;99.90;;;;;;4368091;28;659424;-70
2023/10/27 07:44:25;;;;;;;20.63;11.93;;;11.10;99.90;;;;;;4378446;28;660135;-70
2023/10/27 07:47:12;;;;;;;15.50;9.40;;;11.10;99.90;;;;;;4375537;28;659578;-70
2023/10/27 07:50:01;;;;;;;12.50;7.60;;;11.10;99.90;;;;;;4356539;28;659101;-70
2023/10/27 07:52:48;;;;;;;10.70;8.47;;;11.10;99.90;;;;;;4350723;28;659672;-70
2023/10/27 07:55:36;;;;;;;10.93;7.63;;;11.20;99.90;;;;;;4376620;28;659202;-70
2023/10/27 07:58:25;;;;;;;14.80;7.50;;;11.20;99.90;;;;;;4349283;28;658696;-70
2023/10/27 08:01:12;;;;;;;12.53;6.93;;;11.20;99.90;;;;;;4369745;28;659860;-70
2023/10/27 08:04:02;;;;;;;9.00;5.80;;;11.30;99.90;;;;;;4342409;28;659269;-70
2023/10/27 08:06:51;;;;;;;9.67;5.17;;;11.30;99.90;;;;;;4350921;28;658314;-70
2023/10/27 08:09:39;;;;;;;8.07;5.17;;;11.40;99.90;;;;;;4353553;28;657807;-70
2023/10/27 08:12:26;;;;;;;11.53;5.30;;;11.40;99.90;;;;;;4371919;28;658170;-70
2023/10/27 08:15:13;;;;;;;9.60;5.70;;;11.50;99.90;;;;;;4348279;28;659792;-70
2023/10/27 08:18:00;;;;;;;14.27;5.67;;;11.50;99.90;;;;;;4369467;28;657978;-70
2023/10/27 08:20:48;;;;;;;10.47;5.90;;;11.50;99.90;;;;;;4347234;28;658757;-70
2023/10/27 08:23:37;;;;;;;8.87;5.50;;;11.50;99.90;;;;;;4366837;28;658999;-70
2023/10/27 08:26:24;;;;;;;12.23;5.53;;;11.60;99.90;;;;;;4345784;28;658394;-70
2023/10/27 08:29:11;;;;;;;11.27;6.67;;;11.60;99.90;;;;;;4369941;28;658726;-69
2023/10/27 08:31:58;;;;;;;11.90;6.10;;;11.60;99.90;;;;;;4349493;28;658557;-70
2023/10/27 08:34:46;;;;;;;12.37;6.73;;;11.60;99.90;;;;;;4366671;28;659970;-69
2023/10/27 08:37:33;;;;;;;11.90;5.77;;;11.70;99.90;;;;;;4346089;28;658807;-70
2023/10/27 08:40:22;;;;;;;9.37;4.53;;;11.70;99.90;;;;;;4366576;28;661027;-69
2023/10/27 08:43:10;;;;;;;7.43;4.47;;;11.60;99.90;;;;;;4351695;28;658504;-69
2023/10/27 08:45:57;;;;;;;7.27;4.33;;;11.60;99.90;;;;;;4352141;28;657564;-70
2023/10/27 08:48:45;;;;;;;6.30;4.00;;;11.70;99.90;;;;;;4371523;28;658322;-70
2023/10/27 08:51:32;;;;;;;6.03;4.23;;;11.70;99.90;;;;;;4375890;28;656970;-69
2023/10/27 08:54:20;;;;;;;10.47;4.97;;;11.70;99.90;;;;;;4378235;28;658102;-69
2023/10/27 08:57:09;;;;;;;10.17;4.97;;;11.70;99.90;;;;;;4352639;28;658848;-69
2023/10/27 08:59:56;;;;;;;9.03;5.13;;;11.70;99.90;;;;;;4369449;28;658636;-69
2023/10/27 09:02:43;;;;;;;8.23;4.47;;;11.70;99.90;;;;;;4352221;28;657295;-70
2023/10/27 09:05:32;;;;;;;8.97;5.50;;;11.70;99.90;;;;;;4369238;28;658496;-69
2023/10/27 09:08:19;;;;;;;7.20;3.97;;;11.70;99.90;;;;;;4345685;28;658947;-69
2023/10/27 09:11:07;;;;;;;8.90;3.70;;;11.80;99.90;;;;;;4366982;28;658132;-70
2023/10/27 09:13:55;;;;;;;7.73;4.27;;;11.80;99.90;;;;;;4349494;28;659066;-69
2023/10/27 09:16:43;;;;;;;5.97;4.07;;;11.80;99.90;;;;;;4350444;28;657747;-69
2023/10/27 09:19:31;;;;;;;6.43;3.67;;;11.80;99.90;;;;;;4368464;28;658496;-69
2023/10/27 09:22:19;;;;;;;8.27;4.67;;;11.90;99.90;;;;;;4349455;28;658409;-69
2023/10/27 09:25:17;;;;;;;9.23;5.40;;;11.80;99.90;;;;;;4368559;28;658165;-69
2023/10/27 09:28:06;;;;;;;10.37;6.50;;;11.70;99.90;;;;;;4351016;28;657650;-69
2023/10/27 09:30:54;;;;;;;10.20;6.57;;;11.80;99.90;;;;;;4352146;28;658963;-69
2023/10/27 09:33:41;;;;;;;14.53;5.80;;;11.80;99.90;;;;;;4372570;28;658845;-69
2023/10/27 09:36:29;;;;;;;8.63;5.53;;;11.80;99.90;;;;;;4348314;28;658841;-69
2023/10/27 09:39:19;;;;;;;8.40;5.20;;;11.90;99.90;;;;;;4369585;28;658267;-70
2023/10/27 09:42:07;;;;;;;8.33;5.10;;;11.90;99.90;;;;;;4347120;28;658094;-70
2023/10/27 09:44:57;;;;;;;8.00;4.67;;;12.00;99.90;;;;;;4348377;28;658300;-69
2023/10/27 09:47:47;;;;;;;9.90;4.37;;;12.00;99.90;;;;;;4349648;28;658035;-69
2023/10/27 09:50:35;;;;;;;6.50;4.60;;;12.00;99.90;;;;;;4341793;28;658162;-69
2023/10/27 09:53:22;;;;;;;5.23;3.80;;;11.90;99.90;;;;;;4350088;28;657363;-69
2023/10/27 09:56:10;;;;;;;8.30;4.10;;;11.90;99.90;;;;;;4373399;28;657465;-69
2023/10/27 09:58:57;;;;;;;7.90;3.33;;;11.90;99.90;;;;;;4373288;28;657790;-69
2023/10/27 10:01:44;;;;;;;7.47;3.53;;;11.80;99.90;;;;;;4349688;28;657956;-69
2023/10/27 10:05:00;;;;;;;7.50;3.70;;;11.90;99.90;;;;;;4366412;28;657781;-70
2023/10/27 10:07:52;;;;;;;6.50;4.30;;;11.80;99.90;;;;;;4334130;28;657554;-69
2023/10/27 10:10:39;;;;;;;6.00;3.97;;;11.80;99.90;;;;;;4353704;28;657610;-69
2023/10/27 10:13:36;;;;;;;7.53;4.63;;;11.80;99.90;;;;;;4370385;28;657703;-69
2023/10/27 10:16:23;;;;;;;7.73;3.97;;;11.80;99.90;;;;;;4326658;28;657786;-69
2023/10/27 10:19:10;;;;;;;8.93;4.33;;;11.80;99.90;;;;;;4369549;28;658256;-69
2023/10/27 10:22:00;;;;;;;7.47;3.90;;;11.90;99.90;;;;;;4350856;28;657639;-69
2023/10/27 10:25:21;;;;;;;6.97;4.00;;;11.80;99.90;;;;;;4377744;28;657627;-69
2023/10/27 10:28:33;;;;;;;7.77;4.33;;;11.80;99.90;;;;;;4334670;28;658001;-69
2023/10/27 10:31:24;;;;;;;12.53;6.07;;;11.80;99.90;;;;;;4325130;28;657453;-69
2023/10/27 10:34:11;;;;;;;10.43;5.60;;;11.80;99.90;;;;;;4355223;28;658704;-69
2023/10/27 10:37:27;;;;;;;10.40;5.77;;;11.80;99.90;;;;;;4352526;28;659184;-69
2023/10/27 10:40:26;;;;;;;10.87;5.30;;;11.80;99.90;;;;;;4326098;28;659249;-70
2023/10/27 10:43:24;;;;;;;10.57;5.83;;;11.80;99.90;;;;;;4324414;28;658941;-70
2023/10/27 10:46:12;;;;;;;11.97;6.37;;;11.80;99.90;;;;;;4348623;28;658805;-69
2023/10/27 10:49:00;;;;;;;9.37;5.70;;;11.80;99.90;;;;;;4348879;28;659454;-70
2023/10/27 10:51:50;;;;;;;8.00;5.63;;;11.70;99.90;;;;;;4370250;28;658240;-70
2023/10/27 10:54:39;;;;;;;8.10;5.00;;;11.80;99.90;;;;;;4337134;28;657913;-69
2023/10/27 10:57:27;;;;;;;9.57;5.27;;;11.70;99.90;;;;;;4369662;28;657782;-69
2023/10/27 11:00:18;;;;;;;14.70;5.90;;;11.70;99.90;;;;;;4350776;28;658777;-70
2023/10/27 11:03:09;;;;;;;9.43;5.23;;;11.70;99.90;;;;;;4354270;28;658856;-70
2023/10/27 11:05:59;;;;;;;8.63;4.97;;;11.70;99.90;;;;;;4348136;28;657882;-70
2023/10/27 11:08:46;;;;;;;8.63;4.77;;;11.60;99.90;;;;;;4351195;28;657572;-70
2023/10/27 11:11:36;;;;;;;6.93;4.28;;;11.60;99.90;;;;;;4347965;28;658500;-70
2023/10/27 11:14:23;;;;;;;8.47;4.30;;;11.70;99.90;;;;;;4347085;28;657609;-70
2023/10/27 11:17:12;;;;;;;6.87;4.60;;;11.70;99.90;;;;;;4372490;28;658391;-70
2023/10/27 11:20:00;;;;;;;9.20;5.17;;;11.70;99.90;;;;;;4355115;28;658672;-70
2023/10/27 11:22:47;;;;;;;10.80;5.67;;;11.70;99.90;;;;;;4357609;28;657928;-70
2023/10/27 11:25:35;;;;;;;10.13;5.40;;;11.70;99.90;;;;;;4377765;28;658570;-70
2023/10/27 11:28:26;;;;;;;8.80;5.10;;;11.70;99.90;;;;;;4363452;28;658748;-70
2023/10/27 11:31:19;;;;;;;10.53;5.60;;;11.60;99.90;;;;;;4348024;28;658745;-70
2023/10/27 11:34:07;;;;;;;10.83;6.47;;;11.60;99.90;;;;;;4347208;28;659052;-70
2023/10/27 11:37:05;;;;;;;12.23;7.10;;;11.70;99.90;;;;;;4353321;28;658489;-70
2023/10/27 11:39:53;;;;;;;10.77;6.27;;;11.70;99.90;;;;;;4322893;28;658398;-70
2023/10/27 11:42:41;;;;;;;12.83;7.20;;;11.70;99.90;;;;;;4376648;28;660085;-70
2023/10/27 11:45:29;;;;;;;12.67;7.10;;;11.60;99.90;;;;;;4351925;28;658744;-70
2023/10/27 11:48:16;;;;;;;13.30;7.57;;;11.60;99.90;;;;;;4371461;28;659310;-70
2023/10/27 11:51:05;;;;;;;16.07;7.50;;;11.60;99.90;;;;;;4345567;28;659754;-70
2023/10/27 11:53:52;;;;;;;13.90;7.60;;;11.60;99.90;;;;;;4369969;28;658978;-70
2023/10/27 11:56:39;;;;;;;21.60;11.27;;;11.50;99.90;;;;;;4345761;28;659530;-70
2023/10/27 11:59:26;;;;;;;22.80;10.93;;;11.50;99.90;;;;;;4367846;28;660111;-70
2023/10/27 12:02:15;;;;;;;19.20;10.53;;;11.50;99.90;;;;;;4348134;28;659993;-70
2023/10/27 12:05:03;;;;;;;17.20;10.07;;;11.50;99.90;;;;;;4349746;28;659744;-70
2023/10/27 12:07:50;;;;;;;13.20;7.73;;;11.50;99.90;;;;;;4363615;28;660130;-70
2023/10/27 12:10:37;;;;;;;13.30;8.00;;;11.50;99.90;;;;;;4364122;28;658567;-70
2023/10/27 12:13:25;;;;;;;18.53;9.63;;;11.50;99.90;;;;;;4368810;28;659256;-70
2023/10/27 12:16:12;;;;;;;19.93;10.70;;;11.50;99.90;;;;;;4365948;28;659184;-70
2023/10/27 12:19:02;;;;;;;18.63;10.97;;;11.50;99.90;;;;;;4365060;28;660467;-70
2023/10/27 12:21:49;;;;;;;22.60;12.27;;;11.50;99.90;;;;;;4350125;28;660281;-70
2023/10/27 12:24:37;;;;;;;20.87;11.90;;;11.50;99.90;;;;;;4366813;28;659416;-68
2023/10/27 12:27:24;;;;;;;19.63;11.10;;;11.50;99.90;;;;;;4352679;28;660910;-69
2023/10/27 12:30:12;;;;;;;18.47;10.47;;;11.50;99.90;;;;;;4368689;28;659761;-69
2023/10/27 12:32:59;;;;;;;23.73;11.63;;;11.50;99.90;;;;;;4345106;28;660607;-69
2023/10/27 12:35:49;;;;;;;18.07;11.03;;;11.50;99.90;;;;;;4364618;28;659724;-69
2023/10/27 12:38:36;;;;;;;18.90;10.20;;;11.50;99.90;;;;;;4344376;28;660071;-69
2023/10/27 12:41:23;;;;;;;13.80;8.13;;;11.50;99.90;;;;;;4350732;28;659629;-69
2023/10/27 12:44:11;;;;;;;13.50;8.70;;;11.50;99.90;;;;;;4376039;28;659263;-69
2023/10/27 12:46:58;;;;;;;13.60;8.30;;;11.50;99.90;;;;;;4351168;28;658704;-69
2023/10/27 12:49:46;;;;;;;16.50;8.90;;;11.50;99.90;;;;;;4372966;28;659697;-69
2023/10/27 12:52:35;;;;;;;11.93;8.07;;;11.50;99.90;;;;;;4351795;28;658787;-69
2023/10/27 12:55:23;;;;;;;11.90;7.30;;;11.50;99.90;;;;;;4360027;28;659006;-69
2023/10/27 12:58:10;;;;;;;9.60;6.60;;;11.50;99.90;;;;;;4367669;28;658960;-69
2023/10/27 13:00:57;;;;;;;14.57;6.23;;;11.60;99.90;;;;;;4370934;28;657859;-69
2023/10/27 13:03:45;;;;;;;9.77;6.60;;;11.60;99.90;;;;;;4380133;28;659742;-69
2023/10/27 13:06:32;;;;;;;7.33;5.27;;;11.50;99.90;;;;;;4373998;28;658018;-69
2023/10/27 13:09:20;;;;;;;6.70;5.13;;;11.50;99.90;;;;;;4352557;28;657986;-69
2023/10/27 13:12:10;;;;;;;8.67;5.60;;;11.50;99.90;;;;;;4352893;28;657517;-69
2023/10/27 13:14:58;;;;;;;7.80;5.73;;;11.50;99.90;;;;;;4357234;28;658142;-69
2023/10/27 13:17:45;;;;;;;12.07;6.97;;;11.50;99.90;;;;;;4372809;28;658508;-69
2023/10/27 13:20:33;;;;;;;14.70;6.37;;;11.50;99.90;;;;;;4354756;28;659255;-69
2023/10/27 13:23:20;;;;;;;10.20;6.60;;;11.50;99.90;;;;;;4368305;28;659051;-69
2023/10/27 13:26:09;;;;;;;9.60;6.20;;;11.50;99.90;;;;;;4367195;28;659755;-69
2023/10/27 13:28:57;;;;;;;9.97;6.23;;;11.40;99.90;;;;;;4375357;28;657463;-69
2023/10/27 13:31:45;;;;;;;10.97;6.77;;;11.40;99.90;;;;;;4350734;28;659490;-69
2023/10/27 13:34:32;;;;;;;9.70;6.17;;;11.40;99.90;;;;;;4367481;28;658267;-69
2023/10/27 13:37:19;;;;;;;8.77;5.73;;;11.40;99.90;;;;;;4351564;28;658847;-69
2023/10/27 13:40:08;;;;;;;11.80;6.20;;;11.40;99.90;;;;;;4371773;28;657218;-69
2023/10/27 13:42:56;;;;;;;10.00;6.13;;;11.40;99.90;;;;;;4351161;28;659171;-69
2023/10/27 13:45:44;;;;;;;9.53;5.40;;;11.40;99.90;;;;;;4348253;28;659143;-69
2023/10/27 13:48:33;;;;;;;10.63;5.80;;;11.40;99.90;;;;;;4369917;28;658185;-69
2023/10/27 13:51:20;;;;;;;9.37;6.03;;;11.40;99.90;;;;;;4342545;28;659477;-68
2023/10/27 13:54:09;;;;;;;9.73;5.83;;;11.50;99.90;;;;;;4367083;28;658581;-69
2023/10/27 13:56:57;;;;;;;10.87;6.30;;;11.50;99.90;;;;;;4374494;28;656951;-68
2023/10/27 13:59:45;;;;;;;12.03;6.17;;;11.50;99.90;;;;;;4353457;28;658509;-69
2023/10/27 14:02:32;;;;;;;10.57;6.72;;;11.40;99.90;;;;;;4351021;28;658861;-68
2023/10/27 14:05:20;;;;;;;9.13;5.70;;;11.40;99.90;;;;;;4376615;28;658790;-68
2023/10/27 14:08:08;;;;;;;11.07;5.80;;;11.40;99.90;;;;;;4372568;28;657535;-69
2023/10/27 14:10:55;;;;;;;8.20;5.30;;;11.40;99.90;;;;;;4371653;28;659150;-69
2023/10/27 14:13:44;;;;;;;8.17;5.40;;;11.40;99.90;;;;;;4364926;28;657527;-69